Time;durP1;ratioP1;P1;durP2;ratioP2;P2;SDS_P1;SDS_P2;PMS_P1;PMS_P2;Temp;Humidity;BMP_temperature;BMP_pressure;BME280_temperature;BME280_humidity;BME280_pressure;Samples;Min_cycle;Max_cycle;Signal;HPM_P1;HPM_P2
2021/11/06 00:01:53;;;;;;;19.13;2.70;;;;;;;;;;5038646;28;20041;-68
2021/11/06 00:04:20;;;;;;;33.20;4.07;;;;;;;;;;5037298;28;20145;-68
2021/11/06 00:06:47;;;;;;;27.48;3.95;;;;;;;;;;5036772;28;20937;-68
2021/11/06 00:09:13;;;;;;;27.55;3.20;;;;;;;;;;5039022;28;20098;-68
2021/11/06 00:11:40;;;;;;;28.88;4.28;;;;;;;;;;5042033;28;20087;-68
2021/11/06 00:14:06;;;;;;;27.38;3.72;;;;;;;;;;5038606;28;20124;-68
2021/11/06 00:16:33;;;;;;;25.55;3.00;;;;;;;;;;5036959;28;20140;-68
2021/11/06 00:19:02;;;;;;;38.50;3.90;;;;;;;;;;5041480;28;20133;-68
2021/11/06 00:21:28;;;;;;;31.90;3.97;;;;;;;;;;5035779;28;20136;-67
2021/11/06 00:23:55;;;;;;;34.20;3.88;;;;;;;;;;5041389;28;20049;-67
2021/11/06 00:26:21;;;;;;;35.30;3.90;;;;;;;;;;5036881;28;20088;-68
2021/11/06 00:28:48;;;;;;;40.60;4.20;;;;;;;;;;5035300;28;20080;-68
2021/11/06 00:31:14;;;;;;;46.17;3.95;;;;;;;;;;5040343;28;20057;-68
2021/11/06 00:33:41;;;;;;;27.05;3.67;;;;;;;;;;5044501;28;20137;-68
2021/11/06 00:36:07;;;;;;;34.00;4.35;;;;;;;;;;5036765;28;20428;-68
2021/11/06 00:38:34;;;;;;;26.92;3.67;;;;;;;;;;5033319;28;20465;-68
2021/11/06 00:41:01;;;;;;;14.43;2.25;;;;;;;;;;5036699;28;20111;-68
2021/11/06 00:43:27;;;;;;;31.55;4.28;;;;;;;;;;5040262;28;20080;-68
2021/11/06 00:45:54;;;;;;;28.95;4.63;;;;;;;;;;5039051;28;20128;-68
2021/11/06 00:48:20;;;;;;;28.98;3.50;;;;;;;;;;5038933;28;20124;-68
2021/11/06 00:50:47;;;;;;;33.60;4.22;;;;;;;;;;5039929;28;20139;-68
2021/11/06 00:53:13;;;;;;;28.23;3.42;;;;;;;;;;5044004;28;20072;-68
2021/11/06 00:55:40;;;;;;;33.60;4.00;;;;;;;;;;5041181;28;20132;-68
2021/11/06 00:58:06;;;;;;;32.85;3.90;;;;;;;;;;5035389;28;20045;-68
2021/11/06 01:00:33;;;;;;;28.33;3.80;;;;;;;;;;5041324;28;20124;-68
2021/11/06 01:03:00;;;;;;;34.80;4.07;;;;;;;;;;5037343;28;20632;-68
2021/11/06 01:05:26;;;;;;;35.65;4.20;;;;;;;;;;5038671;28;20076;-68
2021/11/06 01:07:54;;;;;;;31.38;3.88;;;;;;;;;;5041773;28;20045;-68
2021/11/06 01:10:22;;;;;;;29.67;4.03;;;;;;;;;;5015191;28;20536;-68
2021/11/06 01:12:49;;;;;;;30.15;4.32;;;;;;;;;;5039991;28;20564;-68
2021/11/06 01:15:15;;;;;;;34.90;4.83;;;;;;;;;;5035928;28;20122;-68
2021/11/06 01:17:42;;;;;;;25.27;4.07;;;;;;;;;;5036343;28;20481;-68
2021/11/06 01:20:09;;;;;;;41.07;4.97;;;;;;;;;;5035112;28;20175;-68
2021/11/06 01:22:36;;;;;;;39.53;4.72;;;;;;;;;;5038358;28;20088;-68
2021/11/06 01:25:03;;;;;;;42.58;5.07;;;;;;;;;;5035053;28;20132;-68
2021/11/06 01:27:30;;;;;;;44.80;5.43;;;;;;;;;;5038900;28;20053;-68
2021/11/06 01:29:57;;;;;;;39.22;5.88;;;;;;;;;;5035799;28;20053;-68
2021/11/06 01:32:23;;;;;;;47.67;5.57;;;;;;;;;;5040795;28;20132;-68
2021/11/06 01:34:50;;;;;;;41.15;5.53;;;;;;;;;;5032160;28;20127;-68
2021/11/06 01:37:16;;;;;;;45.80;5.60;;;;;;;;;;5036328;28;20129;-68
2021/11/06 01:39:44;;;;;;;49.75;7.72;;;;;;;;;;5034764;28;20145;-68
2021/11/06 01:42:10;;;;;;;41.67;5.45;;;;;;;;;;5040886;28;20137;-68
2021/11/06 01:44:37;;;;;;;40.50;6.10;;;;;;;;;;5038053;28;20076;-68
2021/11/06 01:47:03;;;;;;;45.63;6.30;;;;;;;;;;5039702;28;20132;-68
2021/11/06 01:49:30;;;;;;;52.20;6.75;;;;;;;;;;5037607;28;20410;-68
2021/11/06 01:51:57;;;;;;;47.13;6.50;;;;;;;;;;5033604;28;20053;-68
2021/11/06 01:54:25;;;;;;;36.33;5.53;;;;;;;;;;5034606;28;20084;-68
2021/11/06 01:56:54;;;;;;;43.80;5.30;;;;;;;;;;5036543;28;20064;-68
2021/11/06 01:59:21;;;;;;;50.05;6.35;;;;;;;;;;5035323;28;20125;-68
2021/11/06 02:01:48;;;;;;;45.35;6.50;;;;;;;;;;5043573;28;20072;-68
2021/11/06 02:04:14;;;;;;;41.72;5.82;;;;;;;;;;5035372;28;20136;-68
2021/11/06 02:06:41;;;;;;;52.63;5.32;;;;;;;;;;5036036;28;20252;-68
2021/11/06 02:09:08;;;;;;;33.30;5.40;;;;;;;;;;5038011;28;20114;-68
2021/11/06 02:11:38;;;;;;;42.53;6.03;;;;;;;;;;5036076;28;20585;-68
2021/11/06 02:14:04;;;;;;;38.22;6.13;;;;;;;;;;5037734;28;20088;-68
2021/11/06 02:16:32;;;;;;;39.20;5.18;;;;;;;;;;5039945;28;20421;-68
2021/11/06 02:18:58;;;;;;;38.22;6.05;;;;;;;;;;5038036;28;20084;-69
2021/11/06 02:21:25;;;;;;;47.97;6.00;;;;;;;;;;5039103;28;20091;-68
2021/11/06 02:23:51;;;;;;;41.53;6.38;;;;;;;;;;5037104;28;20083;-68
2021/11/06 02:26:19;;;;;;;37.97;5.38;;;;;;;;;;5037973;28;20089;-69
2021/11/06 02:29:05;;;;;;;42.03;5.50;;;;;;;;;;5035979;28;20060;-68
2021/11/06 02:31:32;;;;;;;45.40;5.10;;;;;;;;;;5042562;28;20132;-69
2021/11/06 02:33:59;;;;;;;34.58;4.28;;;;;;;;;;5039356;28;20141;-69
2021/11/06 02:36:25;;;;;;;36.55;4.82;;;;;;;;;;5038370;28;20080;-68
2021/11/06 02:38:52;;;;;;;33.93;5.30;;;;;;;;;;5033572;28;20046;-68
2021/11/06 02:41:19;;;;;;;40.73;5.10;;;;;;;;;;5034989;28;20382;-68
2021/11/06 02:43:45;;;;;;;34.38;5.25;;;;;;;;;;5032223;28;20053;-69
2021/11/06 02:46:12;;;;;;;33.08;4.50;;;;;;;;;;5038711;28;20168;-68
2021/11/06 02:48:38;;;;;;;37.00;4.93;;;;;;;;;;5043278;28;20106;-68
2021/11/06 02:51:05;;;;;;;31.05;4.30;;;;;;;;;;5039858;28;20141;-69
2021/11/06 02:53:31;;;;;;;27.00;4.30;;;;;;;;;;5042027;28;20123;-68
2021/11/06 02:55:58;;;;;;;32.05;5.82;;;;;;;;;;5035549;28;20576;-69
2021/11/06 02:58:25;;;;;;;22.42;5.00;;;;;;;;;;5034011;28;20132;-68
2021/11/06 03:00:52;;;;;;;32.17;4.30;;;;;;;;;;5043484;28;20080;-68
2021/11/06 03:03:19;;;;;;;36.47;4.60;;;;;;;;;;5041410;28;20048;-68
2021/11/06 03:05:46;;;;;;;37.53;5.47;;;;;;;;;;5041624;28;20084;-68
2021/11/06 03:08:12;;;;;;;37.47;4.93;;;;;;;;;;5037729;28;20049;-68
2021/11/06 03:10:39;;;;;;;33.08;4.22;;;;;;;;;;5040086;28;20649;-68
2021/11/06 03:13:06;;;;;;;43.17;6.03;;;;;;;;;;5036485;28;20581;-69
2021/11/06 03:15:32;;;;;;;46.70;5.35;;;;;;;;;;5043592;28;20332;-69
2021/11/06 03:17:59;;;;;;;33.97;4.93;;;;;;;;;;5038377;28;20472;-68
2021/11/06 03:20:25;;;;;;;34.45;6.15;;;;;;;;;;5035705;28;20088;-69
2021/11/06 03:22:57;;;;;;;45.47;5.75;;;;;;;;;;5038253;28;20569;-68
2021/11/06 03:25:25;;;;;;;35.50;4.88;;;;;;;;;;5037954;28;20232;-68
2021/11/06 03:27:51;;;;;;;45.83;5.70;;;;;;;;;;5038021;28;20180;-68
2021/11/06 03:30:18;;;;;;;31.43;4.63;;;;;;;;;;5038530;28;20075;-68
2021/11/06 03:32:44;;;;;;;34.17;5.43;;;;;;;;;;5038965;28;20748;-68
2021/11/06 03:35:11;;;;;;;28.35;6.03;;;;;;;;;;5042793;28;20041;-69
2021/11/06 03:37:38;;;;;;;30.33;4.75;;;;;;;;;;5040749;28;20133;-69
2021/11/06 03:40:05;;;;;;;27.88;4.32;;;;;;;;;;5039101;28;20084;-69
2021/11/06 03:42:32;;;;;;;45.38;5.35;;;;;;;;;;5037294;28;20096;-69
2021/11/06 03:44:58;;;;;;;33.67;4.82;;;;;;;;;;5035079;28;20053;-68
2021/11/06 03:47:25;;;;;;;38.30;5.60;;;;;;;;;;5034419;28;20144;-69
2021/11/06 03:49:54;;;;;;;31.10;5.55;;;;;;;;;;5039883;28;20041;-69
2021/11/06 03:52:21;;;;;;;27.23;4.22;;;;;;;;;;5036819;28;20572;-69
2021/11/06 03:54:48;;;;;;;31.02;5.53;;;;;;;;;;5042173;28;20133;-69
2021/11/06 03:57:14;;;;;;;32.97;5.10;;;;;;;;;;5037284;28;20080;-69
2021/11/06 03:59:41;;;;;;;45.60;5.53;;;;;;;;;;5041987;28;20068;-69
2021/11/06 04:02:07;;;;;;;46.35;5.10;;;;;;;;;;5041243;28;20103;-69
2021/11/06 04:04:34;;;;;;;36.35;5.55;;;;;;;;;;5038284;28;20111;-68
2021/11/06 04:07:00;;;;;;;28.87;5.80;;;;;;;;;;5039725;28;20081;-69
2021/11/06 04:09:27;;;;;;;33.28;5.07;;;;;;;;;;5038315;28;20091;-69
2021/11/06 04:11:55;;;;;;;;;;;;;;;;;;5041826;28;20048;-68
2021/11/06 04:14:21;;;;;;;37.67;4.85;;;;;;;;;;5039037;28;19968;-69
2021/11/06 04:16:48;;;;;;;33.97;4.70;;;;;;;;;;5040526;28;20076;-69
2021/11/06 04:19:14;;;;;;;31.23;4.43;;;;;;;;;;5037548;28;20072;-69
2021/11/06 04:21:41;;;;;;;34.80;4.53;;;;;;;;;;5036719;28;20569;-69
2021/11/06 04:24:07;;;;;;;29.05;5.18;;;;;;;;;;5041719;28;20080;-68
2021/11/06 04:26:34;;;;;;;37.03;4.55;;;;;;;;;;5035439;28;20084;-68
2021/11/06 04:29:01;;;;;;;36.03;5.07;;;;;;;;;;5040251;28;20076;-68
2021/11/06 04:31:28;;;;;;;25.88;4.90;;;;;;;;;;5041594;28;20080;-69
2021/11/06 04:33:54;;;;;;;35.95;4.85;;;;;;;;;;5039935;28;20124;-68
2021/11/06 04:36:21;;;;;;;33.35;5.88;;;;;;;;;;5044863;28;20091;-69
2021/11/06 04:38:47;;;;;;;30.10;4.50;;;;;;;;;;5034251;28;20048;-69
2021/11/06 04:41:14;;;;;;;28.48;4.25;;;;;;;;;;5032630;28;20106;-69
2021/11/06 04:43:41;;;;;;;31.77;4.43;;;;;;;;;;5035421;28;20048;-69
2021/11/06 04:46:07;;;;;;;36.78;4.93;;;;;;;;;;5035354;28;20133;-69
2021/11/06 04:48:34;;;;;;;31.70;4.45;;;;;;;;;;5041185;28;20081;-69
2021/11/06 04:51:00;;;;;;;38.13;5.13;;;;;;;;;;5038867;28;20128;-68
2021/11/06 04:53:27;;;;;;;29.55;4.70;;;;;;;;;;5035601;28;20339;-69
2021/11/06 04:55:55;;;;;;;35.03;4.82;;;;;;;;;;5037555;28;20049;-69
2021/11/06 04:58:22;;;;;;;29.97;4.47;;;;;;;;;;5034497;28;20128;-69
2021/11/06 05:00:48;;;;;;;36.35;5.15;;;;;;;;;;5042221;28;21113;-69
2021/11/06 05:03:15;;;;;;;33.58;4.38;;;;;;;;;;5040981;28;20046;-69
2021/11/06 05:05:42;;;;;;;48.90;5.53;;;;;;;;;;5039529;28;20136;-68
2021/11/06 05:08:08;;;;;;;30.67;4.63;;;;;;;;;;5039773;28;20084;-68
2021/11/06 05:10:35;;;;;;;34.78;4.72;;;;;;;;;;5039719;28;20092;-69
2021/11/06 05:13:02;;;;;;;34.50;5.13;;;;;;;;;;5034526;28;20085;-69
2021/11/06 05:15:28;;;;;;;33.47;4.72;;;;;;;;;;5038360;28;20128;-69
2021/11/06 05:17:54;;;;;;;33.97;4.20;;;;;;;;;;5034248;28;20132;-69
2021/11/06 05:20:21;;;;;;;36.97;4.90;;;;;;;;;;5043157;28;20135;-68
2021/11/06 05:22:48;;;;;;;33.53;4.88;;;;;;;;;;5041782;28;20363;-69
2021/11/06 05:25:41;;;;;;;29.85;4.95;;;;;;;;;;5034577;28;20156;-69
2021/11/06 05:28:08;;;;;;;32.83;5.22;;;;;;;;;;5039522;28;20535;-69
2021/11/06 05:30:34;;;;;;;31.45;4.75;;;;;;;;;;5040470;28;20072;-68
2021/11/06 05:33:01;;;;;;;40.90;4.65;;;;;;;;;;5036133;28;20080;-69
2021/11/06 05:35:27;;;;;;;30.85;4.25;;;;;;;;;;5034698;28;20076;-69
2021/11/06 05:37:54;;;;;;;39.88;4.70;;;;;;;;;;5034985;28;20053;-69
2021/11/06 05:40:21;;;;;;;28.07;4.53;;;;;;;;;;5036716;28;20088;-69
2021/11/06 05:42:48;;;;;;;38.30;5.40;;;;;;;;;;5034070;28;20128;-69
2021/11/06 05:45:15;;;;;;;28.20;4.82;;;;;;;;;;5039186;28;20076;-69
2021/11/06 05:47:41;;;;;;;40.22;5.45;;;;;;;;;;5043309;28;20084;-68
2021/11/06 05:50:09;;;;;;;28.05;4.22;;;;;;;;;;5034776;28;20124;-69
2021/11/06 05:52:35;;;;;;;;;;;;;;;;;;5036227;28;20104;-68
2021/11/06 05:55:10;;;;;;;24.30;5.05;;;;;;;;;;5033554;28;19964;-68
2021/11/06 05:57:37;;;;;;;32.60;4.65;;;;;;;;;;5032286;28;20516;-69
2021/11/06 06:00:08;;;;;;;35.55;4.97;;;;;;;;;;5035135;28;20084;-69
2021/11/06 06:02:35;;;;;;;36.85;5.85;;;;;;;;;;5036555;28;20133;-69
2021/11/06 06:05:03;;;;;;;28.83;4.55;;;;;;;;;;5032192;28;20136;-69
2021/11/06 06:07:30;;;;;;;40.63;4.57;;;;;;;;;;5037814;28;20081;-69
2021/11/06 06:09:56;;;;;;;29.85;4.65;;;;;;;;;;5039325;28;20053;-69
2021/11/06 06:12:23;;;;;;;33.22;4.75;;;;;;;;;;5035592;28;20133;-69
2021/11/06 06:14:49;;;;;;;35.92;4.97;;;;;;;;;;5037687;28;20096;-69
2021/11/06 06:17:16;;;;;;;35.33;5.45;;;;;;;;;;5036696;28;20107;-69
2021/11/06 06:19:42;;;;;;;30.57;4.20;;;;;;;;;;5039357;28;20128;-69
2021/11/06 06:22:09;;;;;;;38.30;6.35;;;;;;;;;;5036222;28;20081;-69
2021/11/06 06:24:35;;;;;;;31.70;4.32;;;;;;;;;;5035183;28;20081;-69
2021/11/06 06:27:02;;;;;;;34.27;5.40;;;;;;;;;;5040195;28;20095;-69
2021/11/06 06:29:28;;;;;;;35.05;5.15;;;;;;;;;;5038091;28;20478;-69
2021/11/06 06:31:56;;;;;;;33.08;4.82;;;;;;;;;;5038597;28;20629;-69
2021/11/06 06:34:22;;;;;;;24.95;4.15;;;;;;;;;;5040574;28;20603;-68
2021/11/06 06:36:49;;;;;;;29.40;4.15;;;;;;;;;;5042022;28;20088;-69
2021/11/06 06:39:15;;;;;;;32.03;4.72;;;;;;;;;;5041122;28;20045;-68
2021/11/06 06:41:43;;;;;;;33.58;5.35;;;;;;;;;;5038182;28;20682;-69
2021/11/06 06:44:09;;;;;;;41.25;5.38;;;;;;;;;;5036667;28;20133;-69
2021/11/06 06:46:36;;;;;;;43.65;4.45;;;;;;;;;;5046017;28;20123;-68
2021/11/06 06:49:03;;;;;;;29.15;4.55;;;;;;;;;;5036896;28;20597;-68
2021/11/06 06:51:29;;;;;;;31.02;4.90;;;;;;;;;;5043437;28;20132;-68
2021/11/06 06:53:55;;;;;;;29.73;5.13;;;;;;;;;;5042981;28;20052;-68
2021/11/06 06:56:22;;;;;;;37.80;5.18;;;;;;;;;;5042651;28;20232;-69
2021/11/06 06:58:48;;;;;;;42.83;4.25;;;;;;;;;;5042386;28;20127;-68
2021/11/06 07:01:15;;;;;;;30.48;4.43;;;;;;;;;;5040667;28;20088;-69
2021/11/06 07:03:41;;;;;;;30.23;5.17;;;;;;;;;;5044137;28;20131;-68
2021/11/06 07:06:08;;;;;;;29.90;5.47;;;;;;;;;;5042058;28;20428;-68
2021/11/06 07:08:34;;;;;;;38.03;4.88;;;;;;;;;;5038927;28;20064;-68
2021/11/06 07:11:01;;;;;;;29.23;4.90;;;;;;;;;;5040794;28;20099;-68
2021/11/06 07:13:28;;;;;;;28.83;4.78;;;;;;;;;;5043060;28;20091;-68
2021/11/06 07:15:54;;;;;;;31.02;4.28;;;;;;;;;;5035495;28;20079;-69
2021/11/06 07:18:21;;;;;;;37.83;5.63;;;;;;;;;;5035948;28;20060;-69
2021/11/06 07:20:47;;;;;;;40.78;4.47;;;;;;;;;;5040499;28;20095;-69
2021/11/06 07:23:14;;;;;;;34.65;5.25;;;;;;;;;;5038002;28;20127;-68
2021/11/06 07:25:40;;;;;;;34.38;4.97;;;;;;;;;;5037634;28;20069;-70
2021/11/06 07:28:07;;;;;;;37.85;5.00;;;;;;;;;;5038342;28;20092;-68
2021/11/06 07:30:33;;;;;;;36.75;5.55;;;;;;;;;;5041457;28;20050;-68
2021/11/06 07:33:00;;;;;;;37.58;5.50;;;;;;;;;;5038499;28;20137;-69
2021/11/06 07:35:27;;;;;;;48.10;5.43;;;;;;;;;;5039705;28;20080;-68
2021/11/06 07:37:53;;;;;;;38.97;4.82;;;;;;;;;;5039996;28;20511;-68
2021/11/06 07:40:22;;;;;;;30.55;5.43;;;;;;;;;;5036859;28;20564;-68
2021/11/06 07:42:48;;;;;;;46.63;6.28;;;;;;;;;;5040309;28;20054;-69
2021/11/06 07:45:16;;;;;;;32.25;5.38;;;;;;;;;;5040699;28;20080;-69
2021/11/06 07:47:43;;;;;;;31.33;5.10;;;;;;;;;;5023153;28;20140;-69
2021/11/06 07:50:10;;;;;;;34.72;5.13;;;;;;;;;;5038677;28;20095;-69
2021/11/06 07:52:36;;;;;;;37.67;5.47;;;;;;;;;;5039109;28;20136;-69
2021/11/06 07:55:04;;;;;;;37.13;5.75;;;;;;;;;;5036784;28;20080;-68
2021/11/06 07:57:32;;;;;;;33.22;5.47;;;;;;;;;;5046245;28;20076;-68
2021/11/06 07:59:58;;;;;;;41.08;5.93;;;;;;;;;;5041194;28;20128;-68
2021/11/06 08:02:25;;;;;;;34.25;4.82;;;;;;;;;;5037844;28;20276;-69
2021/11/06 08:04:52;;;;;;;47.08;5.55;;;;;;;;;;5038054;28;20113;-69
2021/11/06 08:07:18;;;;;;;41.50;5.15;;;;;;;;;;5034539;28;20131;-69
2021/11/06 08:09:45;;;;;;;32.20;4.87;;;;;;;;;;5035765;28;20144;-69
2021/11/06 08:12:11;;;;;;;39.03;5.05;;;;;;;;;;5043453;28;20867;-69
2021/11/06 08:14:38;;;;;;;25.65;4.55;;;;;;;;;;5042586;28;20612;-69
2021/11/06 08:17:05;;;;;;;34.42;5.20;;;;;;;;;;5036520;28;20101;-69
2021/11/06 08:19:31;;;;;;;29.63;4.50;;;;;;;;;;5040340;28;20551;-69
2021/11/06 08:21:58;;;;;;;30.50;4.80;;;;;;;;;;5041113;28;20081;-69
2021/11/06 08:24:25;;;;;;;35.10;4.47;;;;;;;;;;5041075;28;20600;-70
2021/11/06 08:26:52;;;;;;;27.80;4.32;;;;;;;;;;5041885;28;20128;-69
2021/11/06 08:29:19;;;;;;;28.85;4.85;;;;;;;;;;5038205;28;20143;-69
2021/11/06 08:31:46;;;;;;;20.92;3.83;;;;;;;;;;5037754;28;20584;-69
2021/11/06 08:34:13;;;;;;;35.58;4.47;;;;;;;;;;5033533;28;20124;-69
2021/11/06 08:36:40;;;;;;;;;;;;;;;;;;5039482;28;20125;-69
2021/11/06 08:39:06;;;;;;;29.38;4.10;;;;;;;;;;5041414;28;19921;-69
2021/11/06 08:41:33;;;;;;;26.33;4.13;;;;;;;;;;5037501;28;20049;-69
2021/11/06 08:44:00;;;;;;;28.65;4.40;;;;;;;;;;5037631;28;20132;-69
2021/11/06 08:46:26;;;;;;;26.07;3.80;;;;;;;;;;5037019;28;20131;-69
2021/11/06 08:48:53;;;;;;;21.75;3.35;;;;;;;;;;5038308;28;20069;-69
2021/11/06 08:51:19;;;;;;;30.35;4.25;;;;;;;;;;5040856;28;20669;-69
2021/11/06 08:53:49;;;;;;;20.73;4.17;;;;;;;;;;5035312;28;20080;-69
2021/11/06 08:56:16;;;;;;;23.00;3.60;;;;;;;;;;5040254;28;20100;-69
2021/11/06 08:58:42;;;;;;;21.77;3.60;;;;;;;;;;5037657;28;20655;-69
2021/11/06 09:01:09;;;;;;;31.77;4.45;;;;;;;;;;5039206;28;20123;-69
2021/11/06 09:03:35;;;;;;;15.40;3.13;;;;;;;;;;5039739;28;20041;-69
2021/11/06 09:06:02;;;;;;;19.52;3.95;;;;;;;;;;5037912;28;20140;-69
2021/11/06 09:08:31;;;;;;;18.85;3.20;;;;;;;;;;5039701;28;20081;-69
2021/11/06 09:11:02;;;;;;;26.15;3.40;;;;;;;;;;5033977;28;20080;-69
2021/11/06 09:13:28;;;;;;;33.15;4.20;;;;;;;;;;5035757;28;20092;-69
2021/11/06 09:16:07;;;;;;;22.52;3.70;;;;;;;;;;5036549;28;20056;-69
2021/11/06 09:18:34;;;;;;;20.00;4.00;;;;;;;;;;5034186;28;20417;-69
2021/11/06 09:21:05;;;;;;;27.45;3.42;;;;;;;;;;5035084;28;20071;-69
2021/11/06 09:23:32;;;;;;;25.17;4.70;;;;;;;;;;5042711;28;20077;-69
2021/11/06 09:25:58;;;;;;;17.10;3.47;;;;;;;;;;5035126;28;20181;-69
2021/11/06 09:28:26;;;;;;;18.63;3.23;;;;;;;;;;5032885;28;20045;-69
2021/11/06 09:30:53;;;;;;;25.98;3.90;;;;;;;;;;5035968;28;20088;-69
2021/11/06 09:33:19;;;;;;;15.70;3.17;;;;;;;;;;5034845;28;20140;-69
2021/11/06 09:35:46;;;;;;;25.15;3.33;;;;;;;;;;5035037;28;20516;-69
2021/11/06 09:38:13;;;;;;;18.33;3.60;;;;;;;;;;5035301;28;20081;-69
2021/11/06 09:40:39;;;;;;;23.83;4.07;;;;;;;;;;5031715;28;20544;-69
2021/11/06 09:43:06;;;;;;;19.65;3.65;;;;;;;;;;5032476;28;20133;-69
2021/11/06 09:45:32;;;;;;;20.10;3.50;;;;;;;;;;5036575;28;20077;-69
2021/11/06 09:47:59;;;;;;;15.88;3.17;;;;;;;;;;5044983;28;20493;-69
2021/11/06 09:50:26;;;;;;;20.60;3.17;;;;;;;;;;5037234;28;20137;-69
2021/11/06 09:52:54;;;;;;;17.73;3.03;;;;;;;;;;5036675;28;20485;-69
2021/11/06 09:55:21;;;;;;;18.98;2.95;;;;;;;;;;5034592;28;20045;-69
2021/11/06 09:57:48;;;;;;;22.50;3.17;;;;;;;;;;5033683;28;20057;-69
2021/11/06 10:00:16;;;;;;;21.73;3.60;;;;;;;;;;5034948;28;20203;-69
2021/11/06 10:02:42;;;;;;;17.92;3.28;;;;;;;;;;5040792;28;20084;-69
2021/11/06 10:05:10;;;;;;;22.65;2.83;;;;;;;;;;5040123;28;20045;-69
2021/11/06 10:07:38;;;;;;;15.77;3.20;;;;;;;;;;5039573;28;20076;-69
2021/11/06 10:10:05;;;;;;;14.18;2.63;;;;;;;;;;5038500;28;20103;-69
2021/11/06 10:12:43;;;;;;;14.20;3.15;;;;;;;;;;5039708;28;20493;-69
2021/11/06 10:15:09;;;;;;;22.70;2.80;;;;;;;;;;5037024;28;20057;-69
2021/11/06 10:17:36;;;;;;;14.85;3.15;;;;;;;;;;5036997;28;20466;-69
2021/11/06 10:20:22;;;;;;;16.87;3.40;;;;;;;;;;5037449;28;20132;-69
2021/11/06 10:22:49;;;;;;;14.75;3.35;;;;;;;;;;5032728;28;20076;-69
2021/11/06 10:25:16;;;;;;;20.30;3.05;;;;;;;;;;5032865;28;20087;-69
2021/11/06 10:27:48;;;;;;;18.77;3.25;;;;;;;;;;5035587;28;20108;-69
2021/11/06 10:30:19;;;;;;;17.45;3.15;;;;;;;;;;5034350;28;20099;-69
2021/11/06 10:33:05;;;;;;;20.45;3.20;;;;;;;;;;5032885;28;20120;-69
2021/11/06 10:35:33;;;;;;;19.10;2.95;;;;;;;;;;5033167;28;20045;-69
2021/11/06 10:38:01;;;;;;;18.88;3.22;;;;;;;;;;5034022;28;20076;-69
2021/11/06 10:40:31;;;;;;;12.15;2.78;;;;;;;;;;5034331;28;20140;-69
2021/11/06 10:42:59;;;;;;;17.52;2.88;;;;;;;;;;5019379;28;20053;-69
2021/11/06 10:45:27;;;;;;;20.38;2.97;;;;;;;;;;5041402;28;20511;-69
2021/11/06 10:48:06;;;;;;;16.40;2.80;;;;;;;;;;5035612;28;20092;-69
2021/11/06 10:50:36;;;;;;;16.90;2.85;;;;;;;;;;5037160;28;20133;-69
2021/11/06 10:53:02;;;;;;;25.65;3.92;;;;;;;;;;5037663;28;20059;-69
2021/11/06 10:55:36;;;;;;;20.27;3.08;;;;;;;;;;5033888;28;20069;-69
2021/11/06 10:58:03;;;;;;;20.33;3.58;;;;;;;;;;5039399;28;20045;-69
2021/11/06 11:00:30;;;;;;;19.90;3.40;;;;;;;;;;5041151;28;20116;-68
2021/11/06 11:03:17;;;;;;;17.30;3.07;;;;;;;;;;5032407;28;20076;-69
2021/11/06 11:05:43;;;;;;;17.55;2.63;;;;;;;;;;5034850;28;20535;-69
2021/11/06 11:08:13;;;;;;;13.82;2.95;;;;;;;;;;5039394;28;20492;-69
2021/11/06 11:10:40;;;;;;;15.65;2.90;;;;;;;;;;5040255;28;20152;-69
2021/11/06 11:13:14;;;;;;;13.10;2.40;;;;;;;;;;5041763;28;20089;-69
2021/11/06 11:15:42;;;;;;;10.30;2.47;;;;;;;;;;5039916;28;20132;-68
2021/11/06 11:18:27;;;;;;;16.90;3.40;;;;;;;;;;5040352;28;20091;-69
2021/11/06 11:20:54;;;;;;;11.75;2.08;;;;;;;;;;5035789;28;20095;-68
2021/11/06 11:23:22;;;;;;;20.48;3.10;;;;;;;;;;5040310;28;20076;-68
2021/11/06 11:25:49;;;;;;;18.42;2.58;;;;;;;;;;5041059;28;20080;-68
2021/11/06 11:28:15;;;;;;;12.30;2.40;;;;;;;;;;5040867;28;20095;-68
2021/11/06 11:30:42;;;;;;;14.43;2.63;;;;;;;;;;5034732;28;20102;-68
2021/11/06 11:33:29;;;;;;;12.00;2.58;;;;;;;;;;5043099;28;20057;-69
2021/11/06 11:35:55;;;;;;;12.95;1.95;;;;;;;;;;5035674;28;20049;-69
2021/11/06 11:38:22;;;;;;;14.82;2.63;;;;;;;;;;5039549;28;20080;-69
2021/11/06 11:41:15;;;;;;;19.73;3.38;;;;;;;;;;5040745;28;20144;-68
2021/11/06 11:43:55;;;;;;;18.30;3.20;;;;;;;;;;5021754;28;20444;-68
2021/11/06 11:46:51;;;;;;;33.00;3.50;;;;;;;;;;5039570;28;20080;-68
2021/11/06 11:49:19;;;;;;;13.05;2.42;;;;;;;;;;5020048;28;20080;-69
2021/11/06 11:51:45;;;;;;;;;;;;;;;;;;5039949;28;20141;-69
2021/11/06 11:54:12;;;;;;;10.27;2.03;;;;;;;;;;5038576;28;20368;-68
2021/11/06 11:56:40;;;;;;;10.77;2.10;;;;;;;;;;5040982;28;20579;-68
2021/11/06 11:59:06;;;;;;;16.33;3.00;;;;;;;;;;5037668;28;20049;-68
2021/11/06 12:01:33;;;;;;;18.85;2.47;;;;;;;;;;5034663;28;20585;-68
2021/11/06 12:04:17;;;;;;;12.05;2.45;;;;;;;;;;5035237;28;20103;-68
2021/11/06 12:06:45;;;;;;;13.88;2.50;;;;;;;;;;5036773;28;20133;-68
2021/11/06 12:09:11;;;;;;;11.43;2.35;;;;;;;;;;5037191;28;20072;-68
2021/11/06 12:11:49;;;;;;;9.18;2.05;;;;;;;;;;5035910;28;20497;-68
2021/11/06 12:14:17;;;;;;;14.13;2.50;;;;;;;;;;5039505;28;20455;-68
2021/11/06 12:16:46;;;;;;;13.82;2.20;;;;;;;;;;5038977;28;20475;-68
2021/11/06 12:19:12;;;;;;;13.23;2.30;;;;;;;;;;5037019;28;20496;-68
2021/11/06 12:21:40;;;;;;;11.38;2.15;;;;;;;;;;5038816;28;20080;-68
2021/11/06 12:24:06;;;;;;;;;;;;;;;;;;5045487;28;20149;-68
2021/11/06 12:26:33;;;;;;;12.52;2.55;;;;;;;;;;5039870;28;20385;-68
2021/11/06 12:29:06;;;;;;;7.40;2.08;;;;;;;;;;5037174;28;20042;-68
2021/11/06 12:31:39;;;;;;;8.60;2.10;;;;;;;;;;5037526;28;20081;-68
2021/11/06 12:34:07;;;;;;;12.32;2.10;;;;;;;;;;5036891;28;20123;-68
2021/11/06 12:36:39;;;;;;;15.98;2.50;;;;;;;;;;5042000;28;20077;-68
2021/11/06 12:39:06;;;;;;;13.90;2.05;;;;;;;;;;5015950;28;20057;-67
2021/11/06 12:41:37;;;;;;;11.00;2.00;;;;;;;;;;5038379;28;20041;-69
2021/11/06 12:44:06;;;;;;;14.90;1.77;;;;;;;;;;5038834;28;20115;-68
2021/11/06 12:46:33;;;;;;;9.25;1.77;;;;;;;;;;5038214;28;20132;-68
2021/11/06 12:49:03;;;;;;;10.02;1.77;;;;;;;;;;5038535;28;20131;-68
2021/11/06 12:51:31;;;;;;;8.82;1.92;;;;;;;;;;5042108;28;20073;-68
2021/11/06 12:53:59;;;;;;;14.63;2.17;;;;;;;;;;5036146;28;20589;-68
2021/11/06 12:56:28;;;;;;;13.88;2.05;;;;;;;;;;5041306;28;20084;-68
2021/11/06 12:59:02;;;;;;;10.45;1.80;;;;;;;;;;5034167;28;20643;-68
2021/11/06 13:01:29;;;;;;;11.55;2.22;;;;;;;;;;5020253;28;20049;-68
2021/11/06 13:03:57;;;;;;;19.37;2.77;;;;;;;;;;5039431;28;20136;-68
2021/11/06 13:06:25;;;;;;;9.30;1.98;;;;;;;;;;5039864;28;20132;-68
2021/11/06 13:09:04;;;;;;;25.58;2.55;;;;;;;;;;5036800;28;20107;-68
2021/11/06 13:11:45;;;;;;;10.23;2.45;;;;;;;;;;5038003;28;20092;-69
2021/11/06 13:14:24;;;;;;;10.80;2.58;;;;;;;;;;5037045;28;20133;-68
2021/11/06 13:17:02;;;;;;;14.82;2.85;;;;;;;;;;5037097;28;20041;-68
2021/11/06 13:19:44;;;;;;;18.48;2.95;;;;;;;;;;5036388;28;20133;-68
2021/11/06 13:22:11;;;;;;;16.17;2.88;;;;;;;;;;5041018;28;20150;-68
2021/11/06 13:24:56;;;;;;;16.65;2.95;;;;;;;;;;5036919;28;20049;-68
2021/11/06 13:27:36;;;;;;;11.85;2.33;;;;;;;;;;5038793;28;20149;-68
2021/11/06 13:30:15;;;;;;;12.25;1.98;;;;;;;;;;5030131;28;20585;-68
2021/11/06 13:32:55;;;;;;;10.55;2.30;;;;;;;;;;5038271;28;20144;-68
2021/11/06 13:35:23;;;;;;;15.85;2.88;;;;;;;;;;5032908;28;20129;-68
2021/11/06 13:38:09;;;;;;;11.40;3.35;;;;;;;;;;5040733;28;20504;-68
2021/11/06 13:40:53;;;;;;;14.95;2.85;;;;;;;;;;5037680;28;20140;-68
2021/11/06 13:43:36;;;;;;;9.95;2.47;;;;;;;;;;5034586;28;20081;-68
2021/11/06 13:46:09;;;;;;;13.30;2.67;;;;;;;;;;5037215;28;20128;-68
2021/11/06 13:48:38;;;;;;;16.38;3.13;;;;;;;;;;5044260;28;20466;-68
2021/11/06 13:51:24;;;;;;;12.40;2.47;;;;;;;;;;5040253;28;20099;-68
2021/11/06 13:54:06;;;;;;;16.73;2.97;;;;;;;;;;5038897;28;20131;-68
2021/11/06 13:56:49;;;;;;;16.35;2.80;;;;;;;;;;5036405;28;20415;-68
2021/11/06 13:59:17;;;;;;;21.63;3.05;;;;;;;;;;5041278;28;20091;-68
2021/11/06 14:01:48;;;;;;;22.00;2.65;;;;;;;;;;5036838;28;20125;-68
2021/11/06 14:04:15;;;;;;;20.23;3.35;;;;;;;;;;5035622;28;20141;-68
2021/11/06 14:06:47;;;;;;;22.33;2.97;;;;;;;;;;5035636;28;20038;-67
2021/11/06 14:09:15;;;;;;;18.15;2.38;;;;;;;;;;5032323;28;20128;-68
2021/11/06 14:12:00;;;;;;;17.00;2.97;;;;;;;;;;5037741;28;20085;-68
2021/11/06 14:14:46;;;;;;;16.65;2.65;;;;;;;;;;5037674;28;20089;-68
2021/11/06 14:17:13;;;;;;;17.52;4.10;;;;;;;;;;5035129;28;20326;-68
2021/11/06 14:19:47;;;;;;;15.32;3.88;;;;;;;;;;5035102;28;20049;-68
2021/11/06 14:22:21;;;;;;;18.98;3.65;;;;;;;;;;5037025;28;20545;-68
2021/11/06 14:24:49;;;;;;;17.20;2.70;;;;;;;;;;5033065;28;20136;-68
2021/11/06 14:27:16;;;;;;;23.83;3.33;;;;;;;;;;5034575;28;20141;-68
2021/11/06 14:29:58;;;;;;;14.73;3.63;;;;;;;;;;5035019;28;20383;-68
2021/11/06 14:32:25;;;;;;;19.17;4.05;;;;;;;;;;5034964;28;20132;-69
2021/11/06 14:35:01;;;;;;;26.95;3.75;;;;;;;;;;5036410;28;20140;-70
2021/11/06 14:37:28;;;;;;;19.27;3.00;;;;;;;;;;5034468;28;20073;-70
2021/11/06 14:40:00;;;;;;;23.65;3.22;;;;;;;;;;5033874;28;20089;-70